Time;durP1;ratioP1;P1;durP2;ratioP2;P2;SDS_P1;SDS_P2;PMS_P1;PMS_P2;Temp;Humidity;BMP_temperature;BMP_pressure;BME280_temperature;BME280_humidity;BME280_pressure;Samples;Min_cycle;Max_cycle;Signal;HPM_P1;HPM_P2
2022/07/21 00:00:56;;;;;;;6.43;4.80;;;;;;;28.31;38.94;101400.31;5033803;28;20041;-82
2022/07/21 00:03:24;;;;;;;5.40;4.30;;;;;;;28.31;38.62;101391.94;5033994;28;20053;-82
2022/07/21 00:05:54;;;;;;;5.55;4.22;;;;;;;28.32;38.95;101382.50;5034897;28;20093;-81
2022/07/21 00:08:21;;;;;;;4.85;4.30;;;;;;;28.30;39.00;101387.41;5034212;28;20079;-81
2022/07/21 00:10:49;;;;;;;5.82;4.43;;;;;;;28.29;38.90;101390.41;5034904;28;20150;-81
2022/07/21 00:13:17;;;;;;;5.35;3.83;;;;;;;28.28;38.72;101397.06;5034044;28;20492;-80
2022/07/21 00:15:45;;;;;;;5.78;3.90;;;;;;;28.26;39.04;101396.38;5034533;28;20052;-82
2022/07/21 00:18:14;;;;;;;5.82;3.88;;;;;;;28.26;38.71;101396.38;5035752;28;20121;-82
2022/07/21 00:20:42;;;;;;;5.63;4.00;;;;;;;28.25;38.88;101412.28;5034240;28;20415;-81
2022/07/21 00:23:11;;;;;;;5.60;4.32;;;;;;;28.23;39.05;101403.28;5034553;28;20049;-82
2022/07/21 00:25:39;;;;;;;6.13;3.78;;;;;;;28.19;38.92;101390.78;5033912;28;20133;-82
2022/07/21 00:28:07;;;;;;;5.18;4.00;;;;;;;28.18;38.94;101397.41;5029917;28;20128;-82
2022/07/21 00:30:35;;;;;;;6.65;4.63;;;;;;;28.16;38.89;101393.13;5031774;28;20455;-81
2022/07/21 00:33:03;;;;;;;5.43;3.97;;;;;;;28.15;38.88;101388.56;5031811;28;20050;-82
2022/07/21 00:35:31;;;;;;;4.93;4.03;;;;;;;28.12;38.91;101389.84;5027814;28;20037;-81
2022/07/21 00:37:59;;;;;;;5.82;3.90;;;;;;;28.12;38.97;101392.63;5036359;28;20048;-80
2022/07/21 00:40:29;;;;;;;5.70;4.00;;;;;;;28.13;39.34;101396.28;5035743;28;20567;-81
2022/07/21 00:42:57;;;;;;;6.10;4.28;;;;;;;28.09;39.38;101397.75;5035842;28;20061;-81
2022/07/21 00:45:27;;;;;;;6.38;4.30;;;;;;;28.08;39.80;101405.28;5034983;28;20044;-81
2022/07/21 00:47:54;;;;;;;6.45;3.95;;;;;;;28.02;39.89;101412.53;5036189;28;20033;-81
2022/07/21 00:50:23;;;;;;;4.90;3.75;;;;;;;28.03;39.59;101419.84;5033840;28;20045;-81
2022/07/21 00:52:51;;;;;;;5.90;3.92;;;;;;;28.01;39.90;101404.34;5035052;28;20045;-82
2022/07/21 00:55:22;;;;;;;5.75;4.00;;;;;;;28.00;39.60;101392.31;5034024;28;20053;-81
2022/07/21 00:57:52;;;;;;;5.88;4.03;;;;;;;28.00;39.65;101394.28;5033291;28;20079;-81
2022/07/21 01:00:23;;;;;;;4.85;3.75;;;;;;;27.96;39.73;101395.72;5034508;28;20053;-81
2022/07/21 01:02:52;;;;;;;4.63;3.28;;;;;;;27.94;39.53;101397.84;5046538;28;20117;-80
2022/07/21 01:05:20;;;;;;;5.65;3.80;;;;;;;27.89;39.88;101392.91;5044541;28;20109;-81
2022/07/21 01:07:50;;;;;;;4.97;3.60;;;;;;;27.87;39.78;101388.56;5043125;28;20088;-82
2022/07/21 01:10:21;;;;;;;5.15;3.50;;;;;;;27.86;40.11;101412.81;5035615;28;20045;-82
2022/07/21 01:12:50;;;;;;;4.63;3.42;;;;;;;27.81;40.70;101423.75;5036024;28;20064;-82
2022/07/21 01:15:20;;;;;;;5.97;3.50;;;;;;;27.81;40.80;101432.13;5035483;28;20142;-82
2022/07/21 01:17:49;;;;;;;5.38;3.92;;;;;;;27.75;40.72;101434.84;5036827;28;20082;-82
2022/07/21 01:20:19;;;;;;;5.95;3.80;;;;;;;27.74;40.54;101428.41;5036251;28;20108;-80
2022/07/21 01:22:51;;;;;;;5.88;4.15;;;;;;;27.71;41.00;101422.34;5043617;28;20076;-82
2022/07/21 01:25:20;;;;;;;5.20;3.83;;;;;;;27.62;40.36;101425.28;5036900;28;20049;-81
2022/07/21 01:27:48;;;;;;;4.70;3.83;;;;;;;27.60;40.54;101430.19;5038178;28;20049;-82
2022/07/21 01:30:17;;;;;;;5.60;4.13;;;;;;;27.55;41.00;101434.66;5032367;28;20054;-81
2022/07/21 01:32:46;;;;;;;5.22;3.72;;;;;;;27.52;41.03;101438.66;5051520;28;20073;-81
2022/07/21 01:35:15;;;;;;;5.32;3.90;;;;;;;27.49;40.68;101441.88;5036786;28;20053;-81
2022/07/21 01:37:46;;;;;;;7.00;4.30;;;;;;;27.47;41.11;101430.03;5035550;28;20588;-79
2022/07/21 01:43:04;;;;;;;5.80;3.33;;;;;;;27.38;41.40;101436.81;5023207;28;20077;-82
2022/07/21 01:45:40;;;;;;;5.75;3.45;;;;;;;27.37;41.37;101437.00;5033442;28;20045;-83
2022/07/21 01:48:08;;;;;;;4.75;3.70;;;;;;;27.33;41.05;101439.34;5034337;28;20048;-82
2022/07/21 01:50:37;;;;;;;6.05;3.58;;;;;;;27.30;41.41;101434.13;5034614;28;20045;-83
2022/07/21 01:53:08;;;;;;;5.93;3.55;;;;;;;27.28;41.20;101433.47;5036228;28;20113;-83
2022/07/21 01:55:37;;;;;;;4.88;3.40;;;;;;;27.28;41.54;101436.25;5034918;28;20107;-83
2022/07/21 01:58:05;;;;;;;5.30;3.63;;;;;;;27.20;41.67;101430.81;5037646;28;20442;-84
2022/07/21 02:00:34;;;;;;;4.93;3.40;;;;;;;27.19;41.57;101429.94;5039182;28;20045;-84
2022/07/21 02:03:02;;;;;;;5.32;3.70;;;;;;;27.15;41.77;101428.63;5038311;28;20047;-83
2022/07/21 02:05:30;;;;;;;5.65;3.55;;;;;;;27.11;41.75;101424.47;5031278;28;20061;-84
2022/07/21 02:07:57;;;;;;;5.57;3.72;;;;;;;27.09;41.91;101425.75;5044584;28;20042;-84
2022/07/21 02:10:26;;;;;;;4.55;3.40;;;;;;;27.05;41.33;101432.78;5018738;28;20057;-83
2022/07/21 02:12:55;;;;;;;5.10;3.13;;;;;;;27.03;42.00;101427.38;5032172;28;20140;-84
2022/07/21 02:15:23;;;;;;;4.50;3.17;;;;;;;26.97;41.78;101421.75;5034738;28;20041;-82
2022/07/21 02:17:51;;;;;;;4.57;3.45;;;;;;;26.93;41.90;101415.72;5050041;28;20116;-83
2022/07/21 02:20:19;;;;;;;5.47;3.83;;;;;;;26.91;41.76;101414.19;5035977;28;20431;-81
2022/07/21 02:22:47;;;;;;;4.22;3.28;;;;;;;26.87;42.04;101413.66;5042100;28;20037;-84
2022/07/21 02:25:15;;;;;;;4.20;3.40;;;;;;;26.85;42.22;101416.63;5035727;28;20554;-82
2022/07/21 02:27:45;;;;;;;5.10;3.47;;;;;;;26.84;42.27;101419.63;5033656;28;20049;-84
2022/07/21 02:30:14;;;;;;;4.55;3.63;;;;;;;26.83;42.49;101417.91;5035825;28;20099;-83
2022/07/21 02:32:42;;;;;;;5.90;3.55;;;;;;;26.79;42.53;101410.97;5037305;28;20069;-83
2022/07/21 02:35:11;;;;;;;4.70;3.70;;;;;;;26.77;42.25;101419.53;5036833;28;20068;-84
2022/07/21 02:37:39;;;;;;;6.30;4.28;;;;;;;26.74;42.50;101417.16;5040356;28;20586;-84
2022/07/21 02:40:09;;;;;;;5.47;4.00;;;;;;;26.73;42.79;101421.00;5039073;28;20689;-84
2022/07/21 02:42:37;;;;;;;6.20;4.03;;;;;;;26.70;42.96;101421.38;5040037;28;20153;-83
2022/07/21 02:45:06;;;;;;;5.30;3.95;;;;;;;26.69;42.65;101422.41;5038831;28;20073;-84
2022/07/21 02:47:48;;;;;;;5.55;3.80;;;;;;;26.69;43.27;101421.56;5038873;28;20052;-81
2022/07/21 02:50:16;;;;;;;5.43;4.00;;;;;;;26.61;42.77;101416.94;5038440;28;20594;-82
2022/07/21 02:52:45;;;;;;;5.68;3.97;;;;;;;26.62;43.20;101412.25;5038752;28;20050;-85
2022/07/21 02:55:14;;;;;;;6.55;4.43;;;;;;;26.61;42.95;101404.94;5037522;28;20112;-84
2022/07/21 02:57:42;;;;;;;6.15;4.38;;;;;;;26.60;43.25;101406.03;5041963;28;20037;-84
2022/07/21 03:00:11;;;;;;;7.28;4.80;;;;;;;26.60;43.10;101397.69;5031782;28;20397;-84
2022/07/21 03:02:41;;;;;;;5.75;4.30;;;;;;;26.60;43.19;101400.47;5051325;28;20117;-81
2022/07/21 03:05:09;;;;;;;6.13;4.43;;;;;;;26.58;43.79;101397.00;5052211;28;20041;-81
2022/07/21 03:07:37;;;;;;;7.65;4.65;;;;;;;26.56;43.44;101393.53;5044800;28;20045;-81
2022/07/21 03:10:06;;;;;;;6.57;4.68;;;;;;;26.56;43.84;101402.75;5052094;28;20105;-83
2022/07/21 03:12:34;;;;;;;5.68;4.65;;;;;;;26.55;43.76;101401.03;5035658;28;20487;-83
2022/07/21 03:15:02;;;;;;;8.52;5.00;;;;;;;26.56;43.80;101407.47;5035832;28;20492;-84
2022/07/21 03:17:29;;;;;;;6.50;5.10;;;;;;;26.56;43.78;101408.31;5037782;28;20056;-83
2022/07/21 03:19:59;;;;;;;6.97;5.57;;;;;;;26.57;43.72;101403.63;5035722;28;20096;-82
2022/07/21 03:22:27;;;;;;;7.05;5.13;;;;;;;26.55;44.06;101398.25;5038386;28;20049;-82
2022/07/21 03:24:55;;;;;;;7.03;5.18;;;;;;;26.54;43.87;101388.16;5038164;28;20041;-82
2022/07/21 03:27:23;;;;;;;6.78;5.35;;;;;;;26.54;43.95;101385.38;5040808;28;20033;-81
2022/07/21 03:29:51;;;;;;;6.85;4.88;;;;;;;26.53;43.73;101386.41;5053983;28;20419;-82
2022/07/21 03:35:15;;;;;;;7.05;5.53;;;;;;;26.53;44.37;101380.84;5027866;28;20064;-70
2022/07/21 03:37:46;;;;;;;7.05;5.28;;;;;;;26.53;43.82;101387.28;5012056;28;20034;-70
2022/07/21 03:40:16;;;;;;;7.40;5.95;;;;;;;26.53;43.99;101378.94;5009566;28;20470;-70
2022/07/21 03:42:44;;;;;;;8.65;6.13;;;;;;;26.51;44.32;101381.06;5017371;28;20125;-70
2022/07/21 03:45:12;;;;;;;6.78;5.28;;;;;;;26.51;44.42;101378.28;5008780;28;20050;-70
2022/07/21 03:47:40;;;;;;;6.85;5.40;;;;;;;26.51;44.47;101383.84;5004625;28;20505;-70
2022/07/21 03:50:11;;;;;;;9.07;5.93;;;;;;;26.52;44.44;101379.97;4989918;28;20053;-70
2022/07/21 03:52:41;;;;;;;6.95;6.18;;;;;;;26.53;44.36;101375.28;5001039;28;20060;-70
2022/07/21 03:55:09;;;;;;;7.03;5.53;;;;;;;26.52;44.63;101373.56;5022379;28;20049;-70
2022/07/21 03:57:44;;;;;;;7.72;6.45;;;;;;;26.52;44.41;101376.34;5009247;28;20075;-70
2022/07/21 04:00:15;;;;;;;7.00;5.88;;;;;;;26.54;44.95;101371.44;5005511;28;20049;-70
2022/07/21 04:02:43;;;;;;;8.07;6.30;;;;;;;26.51;44.59;101372.72;5010058;28;20393;-70
2022/07/21 04:05:11;;;;;;;8.13;5.93;;;;;;;26.51;44.73;101375.50;5008971;28;20049;-70
2022/07/21 04:07:43;;;;;;;7.65;5.75;;;;;;;26.55;44.93;101362.03;5005324;28;20081;-70
2022/07/21 04:10:13;;;;;;;7.82;6.30;;;;;;;26.52;45.03;101367.97;5003185;28;20096;-70
2022/07/21 04:12:41;;;;;;;8.55;6.43;;;;;;;26.52;44.51;101371.63;5009763;28;20045;-70
2022/07/21 04:15:10;;;;;;;7.88;5.97;;;;;;;26.53;44.50;101362.22;4998306;28;20430;-70
2022/07/21 04:17:39;;;;;;;7.90;6.22;;;;;;;26.52;44.68;101362.41;5010283;28;20038;-70
2022/07/21 04:20:09;;;;;;;8.25;6.18;;;;;;;26.54;44.71;101365.88;4996429;28;20054;-70
2022/07/21 04:22:37;;;;;;;8.98;6.65;;;;;;;26.52;44.83;101362.41;5008884;28;20582;-70
2022/07/21 04:25:07;;;;;;;9.27;6.70;;;;;;;26.56;44.99;101362.91;5009650;28;20133;-70
2022/07/21 04:27:36;;;;;;;6.72;5.80;;;;;;;26.52;44.66;101365.19;5005060;28;20519;-69
2022/07/21 04:30:06;;;;;;;8.05;6.22;;;;;;;26.52;45.06;101360.50;5001072;28;20049;-69
2022/07/21 04:32:34;;;;;;;8.27;6.22;;;;;;;26.51;44.97;101367.16;5004183;28;20045;-69
2022/07/21 04:35:03;;;;;;;9.02;6.18;;;;;;;26.51;45.14;101355.13;5008501;28;20038;-69
2022/07/21 04:37:32;;;;;;;7.68;6.05;;;;;;;26.51;44.93;101355.13;5008480;28;20034;-70
2022/07/21 04:40:00;;;;;;;8.05;6.18;;;;;;;26.51;44.92;101356.00;5008323;28;20137;-69
2022/07/21 04:42:30;;;;;;;7.35;5.75;;;;;;;26.52;44.84;101362.41;5009866;28;20057;-69
2022/07/21 04:44:58;;;;;;;7.47;5.82;;;;;;;26.50;45.10;101362.63;5018880;28;20045;-69
2022/07/21 04:47:26;;;;;;;8.60;5.82;;;;;;;26.51;44.90;101369.94;5012903;28;20041;-69
2022/07/21 04:49:54;;;;;;;7.22;5.85;;;;;;;26.52;45.04;101370.75;4995985;28;20496;-70
2022/07/21 04:52:22;;;;;;;6.30;5.50;;;;;;;26.54;44.95;101377.00;5008434;28;20049;-68
2022/07/21 04:54:50;;;;;;;6.70;4.97;;;;;;;26.55;44.96;101378.75;5015710;28;20493;-69
2022/07/21 04:57:18;;;;;;;8.52;6.00;;;;;;;26.56;44.61;101379.59;5007934;28;20135;-69
2022/07/21 04:59:47;;;;;;;7.65;5.72;;;;;;;26.60;44.91;101381.84;5002738;28;20393;-70
2022/07/21 05:02:15;;;;;;;7.03;5.53;;;;;;;26.58;44.86;101381.16;5004129;28;20069;-69
2022/07/21 05:04:43;;;;;;;6.70;5.45;;;;;;;26.59;45.04;101380.09;5006665;28;20414;-69
2022/07/21 05:07:11;;;;;;;6.95;5.53;;;;;;;26.60;44.87;101387.41;4995753;28;20069;-69
2022/07/21 05:09:39;;;;;;;6.03;5.18;;;;;;;26.61;45.02;101388.22;5012765;28;20060;-68
2022/07/21 05:12:07;;;;;;;7.43;5.88;;;;;;;26.62;44.86;101392.75;5015079;28;20049;-69
2022/07/21 05:14:35;;;;;;;6.88;5.70;;;;;;;26.63;45.08;101394.47;5011547;28;20037;-69
2022/07/21 05:17:05;;;;;;;8.05;5.82;;;;;;;26.65;45.04;101396.03;5009686;28;20049;-68
2022/07/21 05:19:33;;;;;;;6.90;5.72;;;;;;;26.65;45.21;101395.16;5008366;28;20052;-69
2022/07/21 05:22:01;;;;;;;6.97;5.50;;;;;;;26.68;45.14;101397.56;5008921;28;20049;-68
2022/07/21 05:24:29;;;;;;;7.22;5.35;;;;;;;26.69;45.08;101397.34;5019475;28;20452;-69
2022/07/21 05:26:57;;;;;;;6.00;5.30;;;;;;;26.71;45.27;101397.16;5009064;28;20104;-68
2022/07/21 05:29:25;;;;;;;6.63;5.20;;;;;;;26.72;45.36;101399.75;4998787;28;20049;-69
2022/07/21 05:31:53;;;;;;;6.55;5.55;;;;;;;26.75;45.17;101404.94;4996883;28;20042;-68
2022/07/21 05:34:22;;;;;;;7.10;5.97;;;;;;;26.79;45.00;101399.84;5005019;28;20042;-69
2022/07/21 05:36:50;;;;;;;7.32;5.65;;;;;;;26.78;44.93;101398.97;5008582;28;20506;-68
2022/07/21 05:39:18;;;;;;;8.68;5.75;;;;;;;26.78;44.70;101398.97;5007258;28;20041;-69
2022/07/21 05:41:46;;;;;;;7.75;5.68;;;;;;;26.81;44.87;101389.38;5008453;28;20100;-68
2022/07/21 05:44:14;;;;;;;7.47;5.60;;;;;;;26.81;44.64;101398.59;5007950;28;20462;-68
2022/07/21 05:46:42;;;;;;;8.27;5.72;;;;;;;26.80;45.02;101393.22;5008287;28;20056;-68
2022/07/21 05:49:10;;;;;;;6.40;5.28;;;;;;;26.80;44.64;101398.78;5007059;28;20068;-68
2022/07/21 05:51:39;;;;;;;7.05;5.53;;;;;;;26.82;44.45;101397.53;5009322;28;20042;-68
2022/07/21 05:54:07;;;;;;;8.25;5.22;;;;;;;26.80;44.61;101394.06;5006017;28;20080;-68
2022/07/21 05:56:35;;;;;;;6.97;5.40;;;;;;;26.78;44.49;101398.97;5007776;28;20037;-68
2022/07/21 05:59:03;;;;;;;6.88;5.20;;;;;;;26.79;44.77;101395.13;4995022;28;20061;-68
2022/07/21 06:01:31;;;;;;;5.13;4.40;;;;;;;26.79;44.36;101397.06;5008791;28;20383;-60
2022/07/21 06:03:59;;;;;;;6.40;4.90;;;;;;;26.79;44.00;101402.63;5007369;28;20052;-60
2022/07/21 06:06:27;;;;;;;6.63;5.22;;;;;;;26.80;44.52;101405.22;5007816;28;20037;-59
2022/07/21 06:08:56;;;;;;;7.65;5.25;;;;;;;26.82;44.30;101400.31;5006717;28;20050;-57
2022/07/21 06:11:24;;;;;;;5.95;4.90;;;;;;;26.82;44.35;101407.81;5007198;28;20046;-58
2022/07/21 06:13:52;;;;;;;8.23;5.60;;;;;;;26.83;44.14;101406.75;5006589;28;20104;-59
2022/07/21 06:16:20;;;;;;;6.68;5.57;;;;;;;26.83;44.26;101404.84;5008042;28;20108;-62
2022/07/21 06:18:48;;;;;;;7.55;5.38;;;;;;;26.85;44.19;101407.41;4994566;28;20042;-63
2022/07/21 06:21:17;;;;;;;6.75;5.05;;;;;;;26.86;43.67;101409.13;5007446;28;20766;-65
2022/07/21 06:23:46;;;;;;;7.13;5.43;;;;;;;26.86;44.16;101407.22;5006882;28;20038;-63
2022/07/21 06:26:15;;;;;;;8.82;6.00;;;;;;;26.89;43.66;101411.53;5007719;28;20054;-64
2022/07/21 06:28:43;;;;;;;6.30;5.30;;;;;;;26.86;44.05;101410.00;5003717;28;20148;-63
2022/07/21 06:31:11;;;;;;;6.35;5.60;;;;;;;26.86;43.73;101403.56;5007004;28;20046;-71
2022/07/21 06:33:39;;;;;;;6.95;5.40;;;;;;;26.86;43.92;101411.91;5006513;28;20057;-72
2022/07/21 06:36:08;;;;;;;6.38;5.10;;;;;;;26.87;43.83;101403.38;5007267;28;20054;-71
2022/07/21 06:38:36;;;;;;;6.25;5.00;;;;;;;26.91;44.09;101406.69;5008250;28;20130;-71
2022/07/21 06:41:04;;;;;;;6.30;5.10;;;;;;;26.99;44.32;101400.13;5021661;28;20045;-70
2022/07/21 06:43:34;;;;;;;6.22;5.20;;;;;;;27.11;44.32;101406.88;5007340;28;20499;-70
2022/07/21 06:46:02;;;;;;;7.28;5.30;;;;;;;27.19;44.07;101395.63;5006838;28;20092;-70
2022/07/21 06:48:30;;;;;;;7.05;4.82;;;;;;;27.31;43.98;101398.75;5006773;28;20814;-70
2022/07/21 06:50:58;;;;;;;7.47;5.53;;;;;;;27.40;43.73;101406.78;5002035;28;20041;-68
2022/07/21 06:53:26;;;;;;;6.70;5.47;;;;;;;27.49;43.48;101390.78;5006966;28;20128;-71
2022/07/21 06:55:54;;;;;;;6.18;4.95;;;;;;;27.57;43.67;101394.34;5014518;28;20361;-72
2022/07/21 06:58:32;;;;;;;8.02;5.35;;;;;;;27.64;43.43;101412.00;5006129;28;20045;-72
2022/07/21 07:01:08;;;;;;;7.28;5.20;;;;;;;27.75;43.22;101405.03;5006821;28;20136;-72
2022/07/21 07:03:36;;;;;;;5.97;5.05;;;;;;;27.81;42.99;101406.13;5010536;28;20100;-71
2022/07/21 07:06:05;;;;;;;6.45;5.18;;;;;;;27.89;42.95;101405.97;5010171;28;20085;-72
2022/07/21 07:08:34;;;;;;;6.75;4.95;;;;;;;27.98;42.61;101419.59;4999631;28;20053;-71
2022/07/21 07:11:10;;;;;;;7.18;4.55;;;;;;;28.07;42.78;101416.66;4993044;28;20054;-69
2022/07/21 07:13:38;;;;;;;6.80;4.90;;;;;;;28.19;42.72;101417.81;4991923;28;20046;-71
2022/07/21 07:16:28;;;;;;;5.47;4.63;;;;;;;28.33;42.57;101412.13;4993602;28;20539;-71
2022/07/21 07:18:56;;;;;;;7.65;4.35;;;;;;;28.46;42.05;101413.28;4990783;28;20049;-71
2022/07/21 07:21:25;;;;;;;5.85;4.43;;;;;;;28.61;41.83;101417.66;4992878;28;20695;-71
2022/07/21 07:23:52;;;;;;;5.80;4.15;;;;;;;28.74;41.65;101419.69;4991255;28;20035;-70
2022/07/21 07:26:21;;;;;;;7.65;4.40;;;;;;;28.89;41.35;101417.63;4991623;28;20050;-71
2022/07/21 07:28:49;;;;;;;6.97;4.63;;;;;;;29.03;40.97;101419.38;5000905;28;20124;-71
2022/07/21 07:31:17;;;;;;;6.72;4.82;;;;;;;29.17;40.66;101411.03;5011282;28;20854;-70
2022/07/21 07:33:47;;;;;;;4.93;4.20;;;;;;;29.32;40.43;101414.53;4998573;28;20415;-71
2022/07/21 07:36:15;;;;;;;5.45;4.05;;;;;;;29.43;40.17;101413.94;5002095;28;20045;-70
2022/07/21 07:38:43;;;;;;;6.95;4.28;;;;;;;29.55;39.87;101411.38;5017659;28;20473;-71
2022/07/21 07:41:11;;;;;;;6.60;4.60;;;;;;;29.65;39.62;101409.84;4997837;28;20067;-70
2022/07/21 07:43:39;;;;;;;5.63;4.07;;;;;;;29.74;39.34;101399.31;5023971;28;20490;-71
2022/07/21 07:46:07;;;;;;;6.75;4.57;;;;;;;29.82;39.24;101404.69;4998253;28;20050;-72
2022/07/21 07:48:40;;;;;;;5.80;4.10;;;;;;;29.95;38.65;101401.94;5010649;28;20041;-71
2022/07/21 07:51:09;;;;;;;7.00;4.43;;;;;;;30.03;38.39;101409.25;5010913;28;20054;-71
2022/07/21 07:53:38;;;;;;;5.93;4.40;;;;;;;30.07;38.53;101407.72;5009471;28;20499;-71
2022/07/21 07:56:07;;;;;;;6.50;4.50;;;;;;;30.15;38.27;101401.91;5012949;28;20042;-71
2022/07/21 07:58:36;;;;;;;5.38;3.78;;;;;;;30.21;38.04;101415.06;5005706;28;20064;-71
2022/07/21 08:01:05;;;;;;;4.88;3.72;;;;;;;30.26;37.79;101415.25;5002290;28;20537;-72
2022/07/21 08:03:36;;;;;;;5.88;4.30;;;;;;;30.30;37.69;101408.16;5009195;28;20137;-71
2022/07/21 08:06:06;;;;;;;5.95;4.13;;;;;;;30.36;37.27;101409.19;5010026;28;20065;-71
2022/07/21 08:08:35;;;;;;;5.40;4.15;;;;;;;30.39;36.88;101412.41;5022981;28;20383;-71
2022/07/21 08:11:03;;;;;;;5.93;3.80;;;;;;;30.38;36.61;101405.13;5008833;28;20104;-71
2022/07/21 08:13:32;;;;;;;4.95;3.55;;;;;;;30.39;36.39;101412.41;5008370;28;20577;-72
2022/07/21 08:16:00;;;;;;;5.35;3.50;;;;;;;30.38;36.34;101407.06;5009381;28;20046;-72
2022/07/21 08:18:28;;;;;;;4.70;3.72;;;;;;;30.35;36.01;101413.06;5009770;28;20481;-71
2022/07/21 08:20:56;;;;;;;5.30;3.65;;;;;;;30.32;35.94;101405.97;5009651;28;20066;-72
2022/07/21 08:23:24;;;;;;;5.72;3.50;;;;;;;30.29;36.06;101403.63;5008871;28;20050;-71
2022/07/21 08:25:53;;;;;;;4.93;3.75;;;;;;;30.27;35.96;101403.84;5009403;28;20422;-71
2022/07/21 08:28:21;;;;;;;5.28;3.85;;;;;;;30.23;36.04;101401.66;5021257;28;20124;-72
2022/07/21 08:30:50;;;;;;;5.03;3.90;;;;;;;30.19;35.79;101404.06;5006482;28;20108;-71
2022/07/21 08:33:20;;;;;;;5.38;3.50;;;;;;;30.15;35.84;101408.38;5009428;28;20049;-71
2022/07/21 08:35:48;;;;;;;4.75;3.45;;;;;;;30.13;35.63;101415.28;5009530;28;20046;-71
2022/07/21 08:38:16;;;;;;;5.10;3.58;;;;;;;30.08;35.35;101406.66;5008532;28;20553;-71
2022/07/21 08:40:46;;;;;;;4.30;3.55;;;;;;;30.05;35.24;101409.91;5009993;28;20468;-71
2022/07/21 08:43:15;;;;;;;4.50;3.65;;;;;;;30.02;35.03;101411.19;5009651;28;20621;-71
2022/07/21 08:45:44;;;;;;;4.85;3.80;;;;;;;29.95;35.36;101417.88;5008243;28;20078;-71
2022/07/21 08:48:14;;;;;;;5.38;4.00;;;;;;;29.92;35.18;101407.06;4997094;28;20353;-71
2022/07/21 08:50:42;;;;;;;4.80;4.22;;;;;;;29.87;35.36;101418.94;5007107;28;20046;-71
2022/07/21 08:53:10;;;;;;;5.22;4.25;;;;;;;29.83;35.10;101418.47;5009012;28;20128;-71
2022/07/21 08:55:39;;;;;;;6.38;4.57;;;;;;;29.80;35.12;101415.28;5008457;28;20062;-71
2022/07/21 08:58:09;;;;;;;6.55;5.03;;;;;;;29.78;35.26;101414.59;5018550;28;20214;-72
2022/07/21 09:00:40;;;;;;;5.07;4.53;;;;;;;29.79;35.09;101414.41;5028613;28;20045;-71
2022/07/21 09:03:10;;;;;;;5.22;4.55;;;;;;;29.77;35.58;101415.69;5028493;28;20124;-72
2022/07/21 09:05:38;;;;;;;6.00;4.70;;;;;;;29.76;35.41;101406.41;5028493;28;20056;-72
2022/07/21 09:08:06;;;;;;;6.05;4.50;;;;;;;29.78;35.18;101407.06;5014323;28;20061;-72
2022/07/21 09:10:37;;;;;;;6.63;4.55;;;;;;;29.80;35.36;101410.53;5027786;28;20045;-72
2022/07/21 09:13:07;;;;;;;4.82;4.15;;;;;;;29.85;34.75;101410.72;5025418;28;20147;-71
2022/07/21 09:15:38;;;;;;;4.80;3.97;;;;;;;29.86;34.83;101409.66;5019264;28;20084;-72
2022/07/21 09:18:15;;;;;;;5.10;4.13;;;;;;;29.89;34.69;101417.66;5018835;28;20037;-72
2022/07/21 09:20:49;;;;;;;5.68;4.40;;;;;;;29.91;34.47;101409.00;5016501;28;20749;-72
2022/07/21 09:23:19;;;;;;;5.57;4.75;;;;;;;29.89;35.11;101406.44;5027581;28;20076;-72
2022/07/21 09:25:49;;;;;;;7.07;5.25;;;;;;;29.89;34.86;101411.19;5014928;28;20129;-72
2022/07/21 09:28:19;;;;;;;5.93;4.88;;;;;;;29.87;35.15;101411.38;5016044;28;20502;-72
2022/07/21 09:31:00;;;;;;;5.78;4.88;;;;;;;29.92;34.98;101412.66;5007212;28;20133;-72
2022/07/21 09:33:32;;;;;;;7.55;5.28;;;;;;;29.93;35.27;101411.59;5000762;28;20051;-72
2022/07/21 09:36:04;;;;;;;5.80;4.85;;;;;;;29.94;35.18;101417.00;5023203;28;20069;-71
2022/07/21 09:38:34;;;;;;;5.78;4.68;;;;;;;30.00;34.99;101423.69;5009760;28;20038;-72
2022/07/21 09:41:07;;;;;;;5.15;4.63;;;;;;;30.07;34.25;101418.94;5012829;28;20114;-72
2022/07/21 09:43:42;;;;;;;6.82;4.85;;;;;;;30.11;34.09;101415.50;5027064;28;20054;-72
2022/07/21 09:46:13;;;;;;;5.53;4.18;;;;;;;30.13;33.82;101432.09;5003198;28;20406;-71
2022/07/21 09:48:46;;;;;;;5.70;4.30;;;;;;;30.13;33.54;101427.34;5023017;28;20041;-72
2022/07/21 09:51:37;;;;;;;6.27;4.03;;;;;;;30.12;33.72;101433.16;5020615;28;20071;-71
2022/07/21 09:54:07;;;;;;;5.95;4.20;;;;;;;30.14;33.39;101429.03;5022679;28;20056;-72
2022/07/21 09:56:36;;;;;;;5.47;4.22;;;;;;;30.14;33.44;101436.63;5015740;28;20725;-71
2022/07/21 09:59:06;;;;;;;6.65;4.70;;;;;;;30.14;33.53;101425.41;5001787;28;20045;-71
2022/07/21 10:01:35;;;;;;;5.40;4.43;;;;;;;30.12;33.44;101428.41;5025257;28;20120;-72
2022/07/21 10:04:05;;;;;;;5.68;4.63;;;;;;;30.13;33.61;101432.94;5026621;28;20111;-71
2022/07/21 10:06:36;;;;;;;5.53;4.43;;;;;;;30.11;33.33;101440.69;5025689;28;20144;-71
2022/07/21 10:09:06;;;;;;;5.07;4.22;;;;;;;30.09;33.26;101439.19;5004473;28;20128;-71
2022/07/21 10:11:40;;;;;;;5.45;4.25;;;;;;;30.06;33.22;101439.63;4997938;28;20037;-71
2022/07/21 10:14:10;;;;;;;5.40;4.50;;;;;;;30.02;33.19;101436.41;5027258;28;20138;-71
2022/07/21 10:16:38;;;;;;;5.25;4.30;;;;;;;29.96;33.22;101437.28;5028599;28;20049;-71
2022/07/21 10:19:24;;;;;;;5.47;4.50;;;;;;;29.95;33.11;101441.13;5026710;28;20475;-72
2022/07/21 10:22:01;;;;;;;5.40;4.32;;;;;;;29.88;33.12;101448.66;4995761;28;20466;-71
2022/07/21 10:24:30;;;;;;;7.03;4.32;;;;;;;29.77;33.31;101441.75;5022358;28;20461;-72
2022/07/21 10:27:06;;;;;;;5.50;4.80;;;;;;;29.75;33.39;101445.81;5029037;28;20053;-70
2022/07/21 10:29:54;;;;;;;5.80;4.53;;;;;;;29.64;33.67;101446.47;5021213;28;20049;-71
2022/07/21 10:32:28;;;;;;;;;;;;;;;29.29;33.78;101465.28;4997183;28;20122;-71
2022/07/21 10:34:59;;;;;;;5.22;4.15;;;;;;;29.47;33.73;101451.63;5015640;28;19925;-71
2022/07/21 10:37:49;;;;;;;5.13;4.40;;;;;;;29.37;33.82;101452.00;5006653;28;20065;-71
2022/07/21 10:40:51;;;;;;;5.90;4.82;;;;;;;29.21;34.03;101457.09;5011098;28;20454;-71
2022/07/21 10:43:39;;;;;;;6.00;4.72;;;;;;;29.18;34.73;101458.38;5003055;28;20045;-71
2022/07/21 10:46:34;;;;;;;8.20;5.20;;;;;;;29.06;35.03;101460.06;5007179;28;20387;-74
2022/07/21 10:49:05;;;;;;;7.30;4.95;;;;;;;28.95;35.39;101466.25;5027916;28;20072;-73
2022/07/21 10:51:39;;;;;;;6.70;5.18;;;;;;;28.90;36.14;101466.00;5020229;28;20475;-74
2022/07/21 10:54:25;;;;;;;6.70;4.97;;;;;;;28.79;36.20;101469.38;5023568;28;20041;-73
2022/07/21 10:57:29;;;;;;;6.38;4.90;;;;;;;28.69;36.40;101476.19;5012893;28;20151;-73
2022/07/21 11:00:25;;;;;;;6.72;4.95;;;;;;;28.57;36.47;101468.59;5014160;28;20133;-74
2022/07/21 11:02:56;;;;;;;8.60;5.47;;;;;;;28.54;36.90;101472.66;5007857;28;20061;-74
2022/07/21 11:05:25;;;;;;;7.65;4.70;;;;;;;28.49;36.93;101474.34;5023103;28;20756;-73
2022/07/21 11:08:12;;;;;;;6.53;4.90;;;;;;;28.42;37.40;101479.84;5010935;28;20431;-73
2022/07/21 11:10:43;;;;;;;6.90;4.97;;;;;;;28.34;37.44;101478.09;5007740;28;20124;-74
2022/07/21 11:13:12;;;;;;;6.28;5.10;;;;;;;28.29;37.52;101489.03;5000633;28;20054;-74
2022/07/21 11:15:56;;;;;;;6.93;4.93;;;;;;;28.24;38.58;101479.53;5021913;28;20613;-74
2022/07/21 11:18:26;;;;;;;6.30;5.13;;;;;;;28.16;38.22;101486.13;5019241;28;20565;-72
2022/07/21 11:21:12;;;;;;;6.40;5.45;;;;;;;28.11;38.74;101488.63;5011089;28;20045;-72
2022/07/21 11:23:44;;;;;;;7.80;5.28;;;;;;;28.07;39.30;101487.31;5010885;28;20525;-71
2022/07/21 11:26:14;;;;;;;7.13;5.57;;;;;;;28.01;39.24;101488.09;5011387;28;20414;-69
2022/07/21 11:28:43;;;;;;;6.78;5.70;;;;;;;27.97;39.03;101486.78;5001902;28;20057;-70
2022/07/21 11:31:13;;;;;;;6.20;5.60;;;;;;;27.94;39.51;101485.25;4992251;28;20045;-70
2022/07/21 11:33:44;;;;;;;7.28;5.10;;;;;;;27.89;39.51;101484.13;4991652;28;20427;-70
2022/07/21 11:36:24;;;;;;;6.00;4.90;;;;;;;27.86;40.18;101478.94;4992303;28;20042;-72
2022/07/21 11:39:06;;;;;;;5.95;4.55;;;;;;;27.80;40.43;101485.34;4991138;28;20042;-70
2022/07/21 11:41:36;;;;;;;6.00;4.75;;;;;;;27.73;40.17;101488.06;4989710;28;20050;-71
2022/07/21 11:44:05;;;;;;;5.97;4.70;;;;;;;27.69;40.09;101477.47;4991435;28;20069;-71